createdAt,value
2017-10-16T00:00:45.188Z,87.47
2017-10-16T00:03:13.855Z,87.37
2017-10-16T00:05:42.481Z,87.39
2017-10-16T00:08:11.111Z,87.40
2017-10-16T00:10:39.785Z,87.45
2017-10-16T00:13:08.443Z,87.40
2017-10-16T00:15:37.087Z,87.46
2017-10-16T00:18:05.746Z,87.52
2017-10-16T00:20:34.221Z,87.45
2017-10-16T00:23:02.855Z,87.42
2017-10-16T00:25:31.524Z,87.44
2017-10-16T00:28:00.191Z,87.43
2017-10-16T00:30:28.837Z,87.44
2017-10-16T00:32:57.584Z,87.46
2017-10-16T00:35:26.201Z,87.46
2017-10-16T00:37:54.839Z,87.48
2017-10-16T00:40:23.519Z,87.51
2017-10-16T00:42:52.131Z,87.48
2017-10-16T00:45:20.646Z,87.51
2017-10-16T00:47:49.256Z,87.52
2017-10-16T00:50:17.870Z,87.48
2017-10-16T00:52:46.525Z,87.57
2017-10-16T00:55:15.200Z,87.53
2017-10-16T00:57:43.851Z,87.53
2017-10-16T01:00:12.534Z,87.61
2017-10-16T01:02:41.217Z,87.58
2017-10-16T01:05:09.840Z,87.67
2017-10-16T01:07:38.474Z,87.57
2017-10-16T01:10:07.158Z,87.63
2017-10-16T01:12:35.808Z,87.56
2017-10-16T01:15:04.490Z,87.59
2017-10-16T01:17:36.223Z,87.58
2017-10-16T01:20:04.585Z,87.64
2017-10-16T01:22:33.301Z,87.56
2017-10-16T01:25:01.660Z,87.54
2017-10-16T01:27:34.890Z,87.53
2017-10-16T01:30:03.274Z,87.59
2017-10-16T01:32:31.649Z,87.61
2017-10-16T01:34:59.850Z,87.58
2017-10-16T01:37:28.555Z,87.63
2017-10-16T01:39:57.115Z,87.63
2017-10-16T01:42:25.427Z,87.63
2017-10-16T01:44:53.789Z,87.61
2017-10-16T01:47:22.102Z,87.63
2017-10-16T01:49:50.548Z,87.58
2017-10-16T01:52:19.213Z,87.59
2017-10-16T01:54:47.923Z,87.63
2017-10-16T01:57:16.288Z,87.64
2017-10-16T01:59:44.595Z,87.63
2017-10-16T02:02:13.251Z,87.63
2017-10-16T02:04:41.755Z,87.63
2017-10-16T02:07:10.444Z,87.62
2017-10-16T02:09:39.079Z,87.63
2017-10-16T02:12:07.760Z,87.63
2017-10-16T02:14:36.387Z,87.62
2017-10-16T02:17:05.088Z,87.63
2017-10-16T02:19:33.714Z,87.68
2017-10-16T02:22:02.386Z,87.66
2017-10-16T02:24:30.907Z,87.68
2017-10-16T02:26:59.584Z,87.68
2017-10-16T02:29:28.211Z,87.64
2017-10-16T02:31:56.868Z,87.64
2017-10-16T02:34:25.482Z,87.68
2017-10-16T02:36:54.157Z,87.69
2017-10-16T02:39:22.775Z,87.72
2017-10-16T02:41:51.439Z,87.68
2017-10-16T02:44:20.048Z,87.67
2017-10-16T02:46:48.666Z,87.74
2017-10-16T02:49:17.321Z,87.68
2017-10-16T02:51:45.795Z,87.69
2017-10-16T02:54:14.311Z,87.71
2017-10-16T02:56:42.920Z,87.70
2017-10-16T02:59:11.608Z,87.75
2017-10-16T03:01:40.236Z,87.74
2017-10-16T03:04:08.892Z,87.75
2017-10-16T03:06:37.519Z,87.71
2017-10-16T03:09:05.722Z,87.75
2017-10-16T03:11:34.236Z,87.74
2017-10-16T03:14:02.778Z,87.77
2017-10-16T03:16:31.242Z,87.78
2017-10-16T03:18:59.899Z,87.72
2017-10-16T03:21:28.519Z,87.75
2017-10-16T03:23:57.133Z,87.79
2017-10-16T03:26:25.780Z,87.82
2017-10-16T03:28:54.443Z,87.81
2017-10-16T03:31:23.106Z,87.78
2017-10-16T03:33:51.759Z,87.80
2017-10-16T03:36:22.086Z,87.78
2017-10-16T03:38:50.587Z,87.79
2017-10-16T03:41:19.323Z,87.83
2017-10-16T03:43:47.983Z,87.78
2017-10-16T03:46:16.588Z,87.78
2017-10-16T03:48:45.288Z,87.79
2017-10-16T03:51:13.907Z,87.77
2017-10-16T03:53:42.570Z,87.81
2017-10-16T03:56:11.186Z,87.79
2017-10-16T03:58:39.826Z,87.83
2017-10-16T04:01:08.515Z,87.85
2017-10-16T04:03:37.122Z,87.83
2017-10-16T04:06:05.793Z,87.80
2017-10-16T04:08:34.464Z,87.83
2017-10-16T04:11:03.083Z,87.87
2017-10-16T04:13:31.741Z,87.86
2017-10-16T04:16:00.411Z,87.91
2017-10-16T04:18:29.078Z,87.90
2017-10-16T04:20:57.699Z,87.89
2017-10-16T04:23:26.303Z,87.89
2017-10-16T04:25:54.955Z,87.87
2017-10-16T04:28:23.595Z,87.90
2017-10-16T04:30:52.255Z,87.94
2017-10-16T04:33:20.890Z,87.88
2017-10-16T04:35:49.572Z,87.89
2017-10-16T04:38:18.187Z,87.89
2017-10-16T04:40:46.798Z,87.90
2017-10-16T04:43:15.470Z,87.92
2017-10-16T04:45:44.128Z,87.92
2017-10-16T04:48:12.755Z,87.92
2017-10-16T04:50:41.414Z,87.94
2017-10-16T04:53:10.033Z,87.92
2017-10-16T04:55:38.647Z,87.92
2017-10-16T04:58:07.317Z,87.92
2017-10-16T05:00:35.938Z,87.94
2017-10-16T05:03:04.599Z,87.89
2017-10-16T05:05:33.222Z,87.91
2017-10-16T05:08:01.848Z,87.92
2017-10-16T05:10:30.510Z,87.95
2017-10-16T05:12:59.126Z,87.93
2017-10-16T05:15:27.782Z,87.94
2017-10-16T05:17:56.464Z,87.92
2017-10-16T05:20:25.142Z,87.99
2017-10-16T05:22:53.765Z,88.03
2017-10-16T05:25:22.434Z,88.02
2017-10-16T05:27:51.047Z,88.04
2017-10-16T05:30:19.721Z,88.04
2017-10-16T05:32:48.352Z,88.08
2017-10-16T05:35:16.979Z,88.04
2017-10-16T05:37:45.639Z,88.04
2017-10-16T05:40:14.253Z,88.04
2017-10-16T05:42:42.862Z,88.01
2017-10-16T05:45:11.176Z,88.04
2017-10-16T05:47:39.872Z,88.04
2017-10-16T05:50:08.511Z,88.05
2017-10-16T05:52:37.181Z,88.02
2017-10-16T05:55:05.856Z,88.05
2017-10-16T05:57:34.956Z,88.04
2017-10-16T06:00:03.644Z,88.08
2017-10-16T06:02:32.491Z,88.07
2017-10-16T06:05:00.970Z,88.06
2017-10-16T06:07:29.162Z,88.06
2017-10-16T06:09:57.484Z,88.10
2017-10-16T06:12:26.173Z,88.07
2017-10-16T06:14:54.643Z,88.07
2017-10-16T06:17:23.174Z,88.06
2017-10-16T06:19:51.816Z,88.07
2017-10-16T06:22:20.483Z,88.09
2017-10-16T06:24:49.155Z,88.05
2017-10-16T06:27:17.799Z,88.07
2017-10-16T06:29:46.496Z,88.05
2017-10-16T06:32:14.850Z,88.07
2017-10-16T06:34:43.501Z,88.12
2017-10-16T06:37:12.197Z,88.08
2017-10-16T06:39:40.805Z,88.10
2017-10-16T06:42:09.498Z,88.14
2017-10-16T06:44:38.155Z,88.14
2017-10-16T06:47:06.519Z,88.17
2017-10-16T06:49:35.142Z,88.21
2017-10-16T06:52:03.674Z,88.20
2017-10-16T06:54:32.339Z,88.23
2017-10-16T06:57:00.948Z,88.21
2017-10-16T06:59:29.598Z,88.23
2017-10-16T07:01:58.259Z,88.23
2017-10-16T07:04:26.918Z,88.25
2017-10-16T07:06:55.563Z,88.23
2017-10-16T07:09:24.214Z,88.22
2017-10-16T07:11:52.901Z,88.27
2017-10-16T07:14:21.535Z,88.23
2017-10-16T07:16:50.159Z,88.27
2017-10-16T07:19:18.831Z,88.23
2017-10-16T07:21:47.829Z,88.22
2017-10-16T07:24:16.507Z,88.26
2017-10-16T07:26:45.148Z,88.28
2017-10-16T07:29:13.849Z,88.26
2017-10-16T07:31:42.510Z,88.24
2017-10-16T07:34:11.150Z,88.27
2017-10-16T07:36:39.828Z,88.23
2017-10-16T07:39:08.463Z,88.21
2017-10-16T07:41:36.935Z,88.25
2017-10-16T07:44:05.607Z,88.16
2017-10-16T07:46:34.107Z,88.12
2017-10-16T07:49:02.719Z,88.12
2017-10-16T07:51:31.402Z,88.10
2017-10-16T07:54:00.016Z,88.07
2017-10-16T07:56:28.678Z,88.03
2017-10-16T07:58:57.382Z,88.06
2017-10-16T08:01:25.999Z,88.07
2017-10-16T08:03:54.662Z,88.07
2017-10-16T08:06:23.275Z,88.18
2017-10-16T08:08:51.944Z,88.11
2017-10-16T08:11:20.626Z,88.09
2017-10-16T08:13:49.283Z,88.09
2017-10-16T08:16:17.906Z,88.08
2017-10-16T08:18:46.565Z,88.11
2017-10-16T08:21:15.179Z,88.17
2017-10-16T08:23:43.854Z,88.15
2017-10-16T08:26:12.168Z,88.11
2017-10-16T08:28:40.529Z,88.07
2017-10-16T08:31:08.862Z,88.08
2017-10-16T08:33:37.208Z,88.08
2017-10-16T08:36:05.859Z,88.09
2017-10-16T08:38:34.559Z,88.01
2017-10-16T08:41:03.220Z,88.05
2017-10-16T08:43:31.934Z,88.06
2017-10-16T08:46:00.649Z,88.04
2017-10-16T08:48:29.010Z,88.07
2017-10-16T08:50:57.667Z,88.06
2017-10-16T08:53:26.370Z,88.02
2017-10-16T08:55:54.665Z,88.06
2017-10-16T08:58:23.370Z,88.01
2017-10-16T09:00:51.744Z,88.04
2017-10-16T09:03:19.911Z,88.01
2017-10-16T09:05:48.427Z,88.02
2017-10-16T09:08:16.796Z,88.09
2017-10-16T09:10:45.507Z,88.01
2017-10-16T09:13:14.174Z,88.04
2017-10-16T09:15:42.503Z,88.28
2017-10-16T09:18:10.848Z,88.17
2017-10-16T09:20:39.148Z,88.29
2017-10-16T09:23:07.838Z,88.34
2017-10-16T09:25:36.500Z,88.19
2017-10-16T09:28:04.879Z,88.05
2017-10-16T09:30:33.190Z,88.12
2017-10-16T09:33:01.566Z,88.02
2017-10-16T09:35:29.944Z,88.06
2017-10-16T09:37:58.657Z,87.96
2017-10-16T09:40:27.053Z,88.06
2017-10-16T09:42:55.413Z,88.57
2017-10-16T09:45:23.735Z,88.34
2017-10-16T09:47:52.418Z,88.25
2017-10-16T09:50:20.732Z,88.50
2017-10-16T09:52:49.107Z,89.04
2017-10-16T09:55:17.779Z,88.56
2017-10-16T09:57:46.495Z,88.52
2017-10-16T10:00:14.819Z,88.56
2017-10-16T10:02:43.346Z,88.80
2017-10-16T10:05:11.566Z,88.44
2017-10-16T10:07:39.889Z,88.52
2017-10-16T10:10:08.611Z,88.58
2017-10-16T10:12:36.925Z,88.54
2017-10-16T10:15:05.567Z,88.81
2017-10-16T10:17:37.563Z,88.63
2017-10-16T10:20:06.267Z,88.50
2017-10-16T10:22:34.773Z,88.34
2017-10-16T10:25:03.306Z,88.38
2017-10-16T10:27:33.654Z,88.60
2017-10-16T10:30:02.319Z,88.47
2017-10-16T10:32:30.958Z,88.47
2017-10-16T10:34:59.618Z,88.55
2017-10-16T10:37:28.996Z,88.46
2017-10-16T10:39:57.860Z,88.43
2017-10-16T10:42:26.481Z,88.80
2017-10-16T10:44:55.151Z,88.46
2017-10-16T10:47:23.835Z,88.63
2017-10-16T10:49:52.549Z,88.53
2017-10-16T10:52:21.169Z,88.68
2017-10-16T10:54:49.803Z,88.81
2017-10-16T10:57:18.504Z,88.84
2017-10-16T10:59:47.160Z,89.21
2017-10-16T11:02:15.826Z,89.08
2017-10-16T11:04:44.453Z,88.77
2017-10-16T11:07:13.097Z,89.10
2017-10-16T11:09:41.863Z,89.07
2017-10-16T11:12:10.499Z,89.35
2017-10-16T11:14:38.854Z,88.88
2017-10-16T11:17:07.181Z,88.82
2017-10-16T11:19:35.502Z,88.65
2017-10-16T11:22:03.858Z,88.58
2017-10-16T11:24:32.165Z,88.50
2017-10-16T11:27:00.520Z,88.36
2017-10-16T11:29:29.603Z,88.49
2017-10-16T11:31:58.270Z,88.33
2017-10-16T11:34:26.945Z,88.29
2017-10-16T11:36:55.613Z,88.75
2017-10-16T11:39:23.929Z,88.92
2017-10-16T11:41:52.631Z,88.76
2017-10-16T11:44:21.368Z,88.48
2017-10-16T11:46:50.271Z,88.60
2017-10-16T11:49:18.604Z,88.79
2017-10-16T11:51:47.288Z,88.74
2017-10-16T11:54:15.987Z,88.69
2017-10-16T11:56:44.333Z,88.73
2017-10-16T11:59:13.026Z,88.44
2017-10-16T12:01:41.403Z,88.59
2017-10-16T12:04:09.831Z,88.53
2017-10-16T12:06:38.155Z,88.73
2017-10-16T12:09:06.591Z,88.66
2017-10-16T12:11:35.089Z,88.91
2017-10-16T12:14:03.479Z,88.64
2017-10-16T12:16:31.599Z,88.65
2017-10-16T12:18:59.699Z,88.67
2017-10-16T12:21:28.062Z,88.85
2017-10-16T12:23:56.379Z,88.54
2017-10-16T12:26:24.820Z,88.32
2017-10-16T12:28:53.114Z,88.43
2017-10-16T12:31:21.767Z,88.53
2017-10-16T12:33:50.198Z,88.53
2017-10-16T12:36:18.567Z,88.39
2017-10-16T12:38:46.983Z,88.50
2017-10-16T12:41:15.310Z,88.44
2017-10-16T12:43:43.686Z,88.26
2017-10-16T12:46:12.805Z,88.35
2017-10-16T12:48:41.443Z,88.54
2017-10-16T12:51:09.839Z,88.59
2017-10-16T12:53:38.155Z,88.57
2017-10-16T12:56:06.528Z,88.43
2017-10-16T12:58:34.702Z,88.46
2017-10-16T13:01:03.109Z,88.80
2017-10-16T13:03:31.629Z,88.35
2017-10-16T13:06:00.071Z,88.48
2017-10-16T13:08:28.394Z,88.40
2017-10-16T13:10:56.782Z,88.27
2017-10-16T13:13:25.165Z,88.50
2017-10-16T13:15:53.326Z,88.43
2017-10-16T13:18:21.539Z,88.45
2017-10-16T13:20:49.935Z,88.37
2017-10-16T13:23:18.325Z,88.14
2017-10-16T13:25:46.558Z,88.46
2017-10-16T13:28:14.765Z,88.38
2017-10-16T13:30:42.977Z,88.39
2017-10-16T13:33:11.211Z,88.26
2017-10-16T13:35:39.592Z,88.08
2017-10-16T13:38:08.019Z,87.99
2017-10-16T13:40:36.273Z,88.20
2017-10-16T13:43:04.669Z,88.29
2017-10-16T13:45:33.346Z,88.13
2017-10-16T13:48:01.510Z,87.84
2017-10-16T13:50:29.878Z,87.92
2017-10-16T13:52:58.282Z,88.04
2017-10-16T13:55:26.419Z,88.02
2017-10-16T13:57:54.519Z,87.81
2017-10-16T14:00:22.947Z,87.83
2017-10-16T14:02:51.272Z,88.10
2017-10-16T14:05:19.652Z,87.70
2017-10-16T14:07:47.795Z,87.96
2017-10-16T14:10:16.115Z,87.95
2017-10-16T14:12:44.583Z,87.75
2017-10-16T14:15:12.962Z,87.79
2017-10-16T14:17:41.341Z,87.96
2017-10-16T14:20:09.676Z,87.74
2017-10-16T14:22:38.071Z,87.87
2017-10-16T14:25:06.462Z,87.63
2017-10-16T14:27:35.647Z,87.71
2017-10-16T14:30:03.983Z,87.70
2017-10-16T14:32:32.695Z,87.75
2017-10-16T14:35:01.074Z,87.67
2017-10-16T14:37:33.897Z,87.72
2017-10-16T14:40:02.648Z,87.55
2017-10-16T14:42:30.993Z,87.58
2017-10-16T14:44:59.398Z,87.57
2017-10-16T14:47:27.826Z,87.66
2017-10-16T14:49:56.219Z,87.44
2017-10-16T14:52:24.587Z,87.45
2017-10-16T14:54:52.953Z,87.54
2017-10-16T14:57:21.271Z,87.59
2017-10-16T14:59:49.651Z,87.66
2017-10-16T15:02:23.502Z,87.60
2017-10-16T15:04:51.875Z,87.56
2017-10-16T15:07:20.227Z,87.56
2017-10-16T15:09:48.437Z,87.46
2017-10-16T15:12:17.005Z,87.49
2017-10-16T15:14:45.301Z,87.46
2017-10-16T15:17:13.655Z,87.37
2017-10-16T15:19:41.974Z,87.32
2017-10-16T15:22:10.406Z,87.48
2017-10-16T15:24:38.772Z,87.28
2017-10-16T15:27:07.126Z,87.31
2017-10-16T15:29:35.549Z,87.43
2017-10-16T15:32:03.908Z,87.42
2017-10-16T15:34:32.246Z,87.44
2017-10-16T15:37:00.487Z,87.44
2017-10-16T15:39:29.158Z,87.34
2017-10-16T15:41:57.574Z,87.34
2017-10-16T15:44:25.994Z,87.32
2017-10-16T15:46:54.391Z,87.12
2017-10-16T15:49:22.321Z,86.87
2017-10-16T15:51:50.497Z,86.75
2017-10-16T15:54:18.871Z,86.67
2017-10-16T15:56:47.230Z,86.59
2017-10-16T15:59:15.579Z,86.56
2017-10-16T16:01:44.005Z,86.46
2017-10-16T16:04:12.349Z,86.41
2017-10-16T16:06:40.722Z,86.31
2017-10-16T16:09:08.955Z,86.23
2017-10-16T16:11:37.166Z,86.15
2017-10-16T16:14:05.340Z,86.08
2017-10-16T16:16:33.807Z,86.01
2017-10-16T16:19:01.998Z,85.97
2017-10-16T16:21:30.387Z,85.96
2017-10-16T16:23:58.777Z,85.93
2017-10-16T16:26:27.129Z,85.89
2017-10-16T16:28:55.538Z,85.85
2017-10-16T16:31:23.874Z,85.80
2017-10-16T16:33:52.557Z,85.74
2017-10-16T16:36:20.940Z,85.69
2017-10-16T16:38:49.272Z,85.66
2017-10-16T16:41:17.403Z,85.66
2017-10-16T16:43:46.071Z,85.63
2017-10-16T16:46:14.441Z,85.62
2017-10-16T16:48:43.078Z,85.59
2017-10-16T16:51:11.767Z,85.64
2017-10-16T16:53:40.083Z,85.68
2017-10-16T16:56:08.426Z,85.70
2017-10-16T16:58:37.159Z,85.74
2017-10-16T17:01:05.714Z,85.72
2017-10-16T17:03:34.243Z,85.76
2017-10-16T17:06:02.796Z,85.75
2017-10-16T17:08:31.285Z,85.74
2017-10-16T17:10:59.821Z,85.73
2017-10-16T17:13:28.472Z,85.75
2017-10-16T17:15:57.147Z,85.80
2017-10-16T17:18:25.800Z,85.77
2017-10-16T17:20:54.503Z,85.72
2017-10-16T17:23:23.127Z,85.74
2017-10-16T17:25:51.858Z,85.68
2017-10-16T17:28:20.521Z,85.60
2017-10-16T17:30:49.173Z,85.64
2017-10-16T17:33:17.958Z,85.65
2017-10-16T17:35:46.602Z,85.64
2017-10-16T17:38:15.265Z,85.64
2017-10-16T17:40:43.960Z,85.59
2017-10-16T17:43:12.660Z,85.59
2017-10-16T17:45:41.306Z,85.57
2017-10-16T17:48:10.015Z,85.61
2017-10-16T17:50:38.655Z,85.63
2017-10-16T17:53:07.331Z,85.65
2017-10-16T17:55:36.019Z,85.62
2017-10-16T17:58:04.653Z,85.66
2017-10-16T18:00:33.018Z,85.70
2017-10-16T18:03:01.694Z,85.71
2017-10-16T18:05:30.391Z,85.76
2017-10-16T18:07:59.076Z,85.80
2017-10-16T18:10:27.698Z,85.83
2017-10-16T18:12:56.382Z,85.85
2017-10-16T18:15:24.696Z,85.87
2017-10-16T18:17:53.377Z,85.90
2017-10-16T18:20:21.999Z,85.90
2017-10-16T18:22:50.698Z,85.93
2017-10-16T18:25:19.364Z,85.95
2017-10-16T18:27:48.031Z,86.00
2017-10-16T18:30:16.587Z,86.08
2017-10-16T18:32:45.262Z,86.12
2017-10-16T18:35:13.942Z,86.17
2017-10-16T18:37:42.268Z,86.20
2017-10-16T18:40:10.906Z,86.24
2017-10-16T18:42:39.600Z,86.26
2017-10-16T18:45:07.903Z,86.31
2017-10-16T18:47:36.931Z,86.33
2017-10-16T18:50:05.606Z,86.34
2017-10-16T18:52:34.277Z,86.38
2017-10-16T18:55:02.592Z,86.41
2017-10-16T18:57:31.269Z,86.41
2017-10-16T18:59:59.962Z,86.43
2017-10-16T19:02:28.499Z,86.45
2017-10-16T19:04:57.153Z,86.45
2017-10-16T19:07:25.865Z,86.48
2017-10-16T19:09:54.195Z,86.51
2017-10-16T19:12:22.623Z,86.50
2017-10-16T19:14:50.942Z,86.53
2017-10-16T19:17:19.321Z,86.54
2017-10-16T19:19:47.495Z,86.59
2017-10-16T19:22:15.906Z,86.59
2017-10-16T19:24:44.272Z,86.57
2017-10-16T19:27:12.491Z,86.61
2017-10-16T19:29:40.866Z,86.61
2017-10-16T19:32:09.240Z,86.63
2017-10-16T19:34:37.575Z,86.62
2017-10-16T19:37:05.923Z,86.66
2017-10-16T19:39:34.315Z,86.69
2017-10-16T19:42:02.678Z,86.72
2017-10-16T19:44:31.003Z,86.67
2017-10-16T19:46:59.346Z,86.71
2017-10-16T19:49:27.561Z,86.70
2017-10-16T19:51:55.873Z,86.69
2017-10-16T19:54:24.247Z,86.68
2017-10-16T19:56:52.571Z,86.71
2017-10-16T19:59:20.950Z,86.79
2017-10-16T20:01:49.287Z,86.78
2017-10-16T20:04:17.709Z,86.77
2017-10-16T20:06:46.399Z,86.78
2017-10-16T20:09:14.831Z,86.81
2017-10-16T20:11:43.133Z,86.79
2017-10-16T20:14:11.514Z,86.87
2017-10-16T20:16:39.831Z,86.83
2017-10-16T20:19:08.154Z,86.84
2017-10-16T20:21:36.520Z,86.85
2017-10-16T20:24:04.903Z,86.84
2017-10-16T20:26:33.250Z,86.90
2017-10-16T20:29:01.626Z,86.90
2017-10-16T20:31:29.832Z,86.86
2017-10-16T20:33:58.208Z,86.87
2017-10-16T20:36:26.391Z,86.85
2017-10-16T20:38:54.788Z,86.82
2017-10-16T20:41:23.582Z,86.92
2017-10-16T20:43:51.939Z,86.88
2017-10-16T20:46:20.310Z,86.87
2017-10-16T20:48:48.649Z,86.93
2017-10-16T20:51:16.962Z,86.92
2017-10-16T20:53:45.322Z,86.94
2017-10-16T20:56:13.664Z,87.07
2017-10-16T20:58:42.442Z,86.97
2017-10-16T21:01:10.754Z,86.96
2017-10-16T21:03:39.115Z,86.95
2017-10-16T21:06:07.434Z,86.94
2017-10-16T21:08:35.819Z,86.95
2017-10-16T21:11:04.004Z,87.04
2017-10-16T21:13:32.225Z,87.02
2017-10-16T21:16:00.579Z,87.13
2017-10-16T21:18:28.894Z,87.09
2017-10-16T21:20:57.239Z,87.08
2017-10-16T21:23:25.609Z,87.02
2017-10-16T21:25:53.917Z,87.03
2017-10-16T21:28:22.616Z,86.96
2017-10-16T21:30:51.322Z,87.06
2017-10-16T21:33:19.643Z,87.04
2017-10-16T21:35:48.231Z,87.09
2017-10-16T21:38:16.586Z,87.15
2017-10-16T21:40:44.882Z,87.17
2017-10-16T21:43:13.253Z,87.15
2017-10-16T21:45:41.579Z,87.10
2017-10-16T21:48:09.958Z,87.19
2017-10-16T21:50:38.281Z,87.15
2017-10-16T21:53:06.634Z,87.20
2017-10-16T21:55:34.821Z,87.16
2017-10-16T21:58:03.390Z,87.23
2017-10-16T22:00:32.052Z,87.22
2017-10-16T22:03:00.403Z,87.20
2017-10-16T22:05:29.121Z,87.20
2017-10-16T22:07:57.463Z,87.23
2017-10-16T22:10:25.784Z,87.11
2017-10-16T22:12:54.205Z,87.09
2017-10-16T22:15:22.534Z,87.05
2017-10-16T22:17:50.907Z,87.12
2017-10-16T22:20:19.238Z,87.11
2017-10-16T22:22:47.619Z,87.17
2017-10-16T22:25:15.954Z,87.17
2017-10-16T22:27:44.272Z,87.17
2017-10-16T22:30:12.967Z,87.15
2017-10-16T22:32:41.287Z,87.13
2017-10-16T22:35:09.641Z,87.10
2017-10-16T22:37:41.938Z,87.10
2017-10-16T22:40:10.251Z,87.06
2017-10-16T22:42:38.573Z,87.08
2017-10-16T22:45:07.083Z,87.10
2017-10-16T22:47:39.421Z,87.12
2017-10-16T22:50:07.789Z,87.09
2017-10-16T22:52:36.108Z,87.08
2017-10-16T22:55:04.208Z,87.08
2017-10-16T22:57:37.096Z,87.06
2017-10-16T23:00:05.729Z,87.05
2017-10-16T23:02:34.077Z,87.07
2017-10-16T23:05:02.370Z,87.07
2017-10-16T23:07:33.210Z,87.05
2017-10-16T23:10:01.567Z,87.05
2017-10-16T23:12:29.896Z,87.07
2017-10-16T23:14:58.260Z,87.06
2017-10-16T23:17:26.577Z,87.05
2017-10-16T23:19:54.761Z,87.04
2017-10-16T23:22:22.842Z,87.05
2017-10-16T23:24:51.146Z,87.04
2017-10-16T23:27:19.557Z,87.04
2017-10-16T23:29:48.187Z,87.05
2017-10-16T23:32:16.542Z,87.04
2017-10-16T23:34:44.834Z,87.04
2017-10-16T23:37:12.992Z,87.04
2017-10-16T23:39:41.238Z,87.04
2017-10-16T23:42:09.753Z,87.04
2017-10-16T23:44:38.105Z,87.05
2017-10-16T23:47:06.768Z,87.06
2017-10-16T23:49:35.126Z,87.06
2017-10-16T23:52:03.478Z,87.06
2017-10-16T23:54:31.845Z,87.04
2017-10-16T23:57:00.171Z,87.03
2017-10-16T23:59:28.677Z,87.04
